Terminal Aerodrome Forecast
Issued by NWS Hastings, NE

Home | Current Version | Previous Version | Text Only | Print | Product List | Glossary On
Versions: 1 2 3 4 5 6 7 8 9 10 11 12 13 14
000
FTUS45 KGID 161720
TAFEAR
TAF
KEAR 161720Z 1618/1718 01013KT 4SM -FZRA OVC008
     FM162000 36014G22KT 4SM -FZRASN OVC008
     FM170100 34013G21KT P6SM VCSH OVC010
     FM170300 34012KT P6SM BKN010
     FM170600 33010KT P6SM FEW250
      AMD LTD TO CLD VIS AND WIND=

USA.gov is the U.S. government's official web portal to all federal, state and local government web resources and services.